createdAt,value
2018-06-02T00:00:02.729Z,3
2018-06-02T00:05:03.215Z,2
2018-06-02T00:10:02.854Z,3
2018-06-02T00:15:03.489Z,2
2018-06-02T00:20:03.077Z,3
2018-06-02T00:25:02.687Z,3
2018-06-02T00:30:03.245Z,3
2018-06-02T00:35:02.817Z,3
2018-06-02T00:40:03.463Z,2
2018-06-02T00:45:03.038Z,4
2018-06-02T00:50:02.648Z,2
2018-06-02T00:55:03.251Z,3
2018-06-02T01:00:02.846Z,2
2018-06-02T01:05:03.437Z,2
2018-06-02T01:10:03.076Z,3
2018-06-02T01:15:02.668Z,2
2018-06-02T01:20:03.269Z,3
2018-06-02T01:25:02.861Z,1
2018-06-02T01:30:03.477Z,1
2018-06-02T01:35:03.013Z,0
2018-06-02T01:40:02.629Z,2
2018-06-02T01:45:03.231Z,3
2018-06-02T01:50:02.814Z,2
2018-06-02T01:55:03.422Z,2
2018-06-02T02:00:03.010Z,1
2018-06-02T02:05:02.638Z,0
2018-06-02T02:10:03.317Z,1
2018-06-02T02:15:02.849Z,2
2018-06-02T02:20:03.570Z,0
2018-06-02T02:25:03.254Z,2
2018-06-02T02:30:02.842Z,2
2018-06-02T02:35:03.476Z,2
2018-06-02T02:40:03.129Z,2
2018-06-02T02:45:02.772Z,2
2018-06-02T02:50:03.365Z,0
2018-06-02T02:55:02.922Z,1
2018-06-02T03:00:03.759Z,2
2018-06-02T03:05:03.353Z,2
2018-06-02T03:10:02.991Z,0
2018-06-02T03:15:02.630Z,2
2018-06-02T03:20:03.723Z,2
2018-06-02T03:25:03.677Z,1
2018-06-02T03:30:03.245Z,3
2018-06-02T03:35:02.804Z,3
2018-06-02T03:40:03.389Z,3
2018-06-02T03:45:02.949Z,1
2018-06-02T03:50:03.602Z,1
2018-06-02T03:55:03.229Z,3
2018-06-02T04:00:02.839Z,4
2018-06-02T04:05:03.375Z,2
2018-06-02T04:10:02.986Z,1
2018-06-02T04:15:03.580Z,3
2018-06-02T04:20:03.225Z,3
2018-06-02T04:25:02.860Z,5
2018-06-02T04:30:03.387Z,4
2018-06-02T04:35:02.920Z,1
2018-06-02T04:40:03.633Z,3
2018-06-02T04:45:03.247Z,4
2018-06-02T04:50:02.988Z,3
2018-06-02T04:55:03.565Z,2
2018-06-02T05:00:03.121Z,2
2018-06-02T05:05:02.742Z,3
2018-06-02T05:10:03.327Z,4
2018-06-02T05:15:03.050Z,4
2018-06-02T05:20:02.786Z,4
2018-06-02T05:25:03.455Z,3
2018-06-02T05:30:03.312Z,6
2018-06-02T05:35:02.930Z,4
2018-06-02T05:40:03.506Z,3
2018-06-02T05:45:03.150Z,2
2018-06-02T05:50:02.700Z,5
2018-06-02T05:55:03.222Z,2
2018-06-02T06:00:02.865Z,3
2018-06-02T06:05:03.404Z,4
2018-06-02T06:10:03.031Z,3
2018-06-02T06:15:03.619Z,2
2018-06-02T06:20:03.205Z,3
2018-06-02T06:25:02.792Z,3
2018-06-02T06:30:03.359Z,2
2018-06-02T06:35:02.946Z,3
2018-06-02T06:40:03.569Z,3
2018-06-02T06:45:03.139Z,2
2018-06-02T06:50:02.669Z,3
2018-06-02T06:55:03.436Z,2
2018-06-02T07:00:03.314Z,3
2018-06-02T07:05:02.935Z,3
2018-06-02T07:10:03.607Z,4
2018-06-02T07:15:03.168Z,6
2018-06-02T07:20:02.811Z,3
2018-06-02T07:25:03.394Z,2
2018-06-02T07:30:02.958Z,2
2018-06-02T07:35:03.631Z,3
2018-06-02T07:40:03.328Z,2
2018-06-02T07:45:02.951Z,3
2018-06-02T07:50:03.896Z,3
2018-06-02T07:55:02.671Z,2
2018-06-02T08:00:03.241Z,6
2018-06-02T08:05:02.863Z,3
2018-06-02T08:10:03.531Z,3
2018-06-02T08:15:03.162Z,6
2018-06-02T08:20:02.712Z,3
2018-06-02T08:25:03.437Z,2
2018-06-02T08:30:03.167Z,4
2018-06-02T08:35:02.791Z,3
2018-06-02T08:40:03.390Z,5
2018-06-02T08:45:02.972Z,5
2018-06-02T08:50:03.544Z,4
2018-06-02T08:55:03.092Z,3
2018-06-02T09:00:02.635Z,6
2018-06-02T09:05:03.284Z,6
2018-06-02T09:10:02.917Z,4
2018-06-02T09:15:03.527Z,5
2018-06-02T09:20:03.095Z,6
2018-06-02T09:25:02.780Z,5
2018-06-02T09:30:03.355Z,6
2018-06-02T09:35:03.033Z,6
2018-06-02T09:40:02.908Z,5
2018-06-02T09:45:03.579Z,3
2018-06-02T09:50:03.171Z,4
2018-06-02T09:55:02.849Z,4
2018-06-02T10:00:03.462Z,7
2018-06-02T10:05:03.005Z,4
2018-06-02T10:10:02.639Z,3
2018-06-02T10:15:03.201Z,2
2018-06-02T10:20:02.882Z,2
2018-06-02T10:25:03.442Z,4
2018-06-02T10:30:02.957Z,7
2018-06-02T10:35:03.568Z,4
2018-06-02T10:40:03.231Z,2
2018-06-02T10:45:02.914Z,2
2018-06-02T10:50:03.487Z,4
2018-06-02T10:55:03.083Z,4
2018-06-02T11:00:02.704Z,5
2018-06-02T11:05:03.475Z,4
2018-06-02T11:10:03.121Z,7
2018-06-02T11:15:02.751Z,2
2018-06-02T11:20:03.324Z,4
2018-06-02T11:25:02.822Z,5
2018-06-02T11:30:03.408Z,5
2018-06-02T11:35:02.921Z,4
2018-06-02T11:40:03.560Z,2
2018-06-02T11:45:03.172Z,2
2018-06-02T11:50:02.832Z,3
2018-06-02T11:55:03.446Z,3
2018-06-02T12:00:03.012Z,3
2018-06-02T12:05:02.603Z,4
2018-06-02T12:10:03.262Z,3
2018-06-02T12:15:02.811Z,4
2018-06-02T12:20:03.428Z,4
2018-06-02T12:25:02.972Z,2
2018-06-02T12:30:03.599Z,4
2018-06-02T12:35:03.214Z,3
2018-06-02T12:40:02.954Z,3
2018-06-02T12:45:03.537Z,2
2018-06-02T12:50:03.096Z,2
2018-06-02T12:55:02.685Z,2
2018-06-02T13:00:03.302Z,0
2018-06-02T13:05:02.950Z,2
2018-06-02T13:10:03.507Z,2
2018-06-02T13:15:03.158Z,2
2018-06-02T13:20:02.832Z,3
2018-06-02T13:25:03.520Z,3
2018-06-02T13:30:03.101Z,2
2018-06-02T13:35:02.765Z,0
2018-06-02T13:40:03.429Z,2
2018-06-02T13:45:02.982Z,2
2018-06-02T13:50:03.488Z,2
2018-06-02T13:55:03.052Z,3
2018-06-02T14:00:03.594Z,2
2018-06-02T14:05:03.177Z,0
2018-06-02T14:10:02.839Z,1
2018-06-02T14:15:03.499Z,2
2018-06-02T14:20:03.114Z,2
2018-06-02T14:25:02.706Z,2
2018-06-02T14:30:03.340Z,2
2018-06-02T14:35:02.955Z,0
2018-06-02T14:40:02.631Z,2
2018-06-02T14:45:03.136Z,2
2018-06-02T14:50:02.706Z,3
2018-06-02T14:55:03.424Z,2
2018-06-02T15:00:03.121Z,3
2018-06-02T15:05:02.788Z,4
2018-06-02T15:10:03.395Z,0
2018-06-02T15:15:02.926Z,0
2018-06-02T15:20:03.557Z,5
2018-06-02T15:25:03.460Z,4
2018-06-02T15:30:03.210Z,0
2018-06-02T15:35:02.786Z,1
2018-06-02T15:40:03.512Z,3
2018-06-02T15:45:03.151Z,2
2018-06-02T15:50:02.768Z,0
2018-06-02T15:55:03.295Z,1
2018-06-02T16:00:02.912Z,0
2018-06-02T16:05:03.620Z,0
2018-06-02T16:10:03.343Z,0
2018-06-02T16:15:02.903Z,2
2018-06-02T16:20:03.507Z,5
2018-06-02T16:25:03.217Z,3
2018-06-02T16:30:02.860Z,3
2018-06-02T16:35:03.467Z,2
2018-06-02T16:40:03.214Z,0
2018-06-02T16:45:03.003Z,0
2018-06-02T16:50:02.676Z,0
2018-06-02T16:55:03.250Z,0
2018-06-02T17:00:02.837Z,0
2018-06-02T17:05:03.512Z,2
2018-06-02T17:10:03.165Z,1
2018-06-02T17:15:02.767Z,1
2018-06-02T17:20:03.606Z,2
2018-06-02T17:25:03.452Z,2
2018-06-02T17:30:03.005Z,2
2018-06-02T17:35:03.549Z,1
2018-06-02T17:40:03.138Z,0
2018-06-02T17:45:02.780Z,1
2018-06-02T17:50:03.426Z,2
2018-06-02T17:55:03.043Z,2
2018-06-02T18:00:03.626Z,0
2018-06-02T18:05:03.284Z,0
2018-06-02T18:10:02.986Z,2
2018-06-02T18:15:03.725Z,3
2018-06-02T18:20:03.249Z,2
2018-06-02T18:25:02.880Z,1
2018-06-02T18:30:03.498Z,2
2018-06-02T18:35:03.097Z,3
2018-06-02T18:40:02.723Z,2
2018-06-02T18:45:03.408Z,0
2018-06-02T18:50:03.050Z,0
2018-06-02T18:55:02.667Z,1
2018-06-02T19:00:03.257Z,1
2018-06-02T19:05:02.906Z,0
2018-06-02T19:10:03.638Z,0
2018-06-02T19:15:03.204Z,0
2018-06-02T19:20:02.860Z,0
2018-06-02T19:25:03.450Z,0
2018-06-02T19:30:02.969Z,0
2018-06-02T19:35:03.606Z,0
2018-06-02T19:40:03.202Z,0
2018-06-02T19:45:02.845Z,0
2018-06-02T19:50:03.437Z,0
2018-06-02T19:55:02.939Z,0
2018-06-02T20:00:03.806Z,0
2018-06-02T20:05:03.524Z,0
2018-06-02T20:10:03.243Z,0
2018-06-02T20:15:02.944Z,0
2018-06-02T20:20:03.579Z,0
2018-06-02T20:25:03.218Z,0
2018-06-02T20:30:02.848Z,0
2018-06-02T20:35:03.588Z,0
2018-06-02T20:40:03.134Z,0
2018-06-02T20:45:03.010Z,0
2018-06-02T20:50:02.671Z,0
2018-06-02T20:55:03.320Z,0
2018-06-02T21:00:02.919Z,0
2018-06-02T21:05:03.576Z,0
2018-06-02T21:10:03.387Z,0
2018-06-02T21:15:03.008Z,0
2018-06-02T21:20:03.705Z,0
2018-06-02T21:25:03.327Z,0
2018-06-02T21:30:02.964Z,0
2018-06-02T21:35:03.559Z,0
2018-06-02T21:40:03.253Z,0
2018-06-02T21:45:02.779Z,0
2018-06-02T21:50:03.287Z,0
2018-06-02T21:55:02.910Z,0
2018-06-02T22:00:03.568Z,0
2018-06-02T22:05:03.176Z,0
2018-06-02T22:10:02.845Z,0
2018-06-02T22:15:03.396Z,0
2018-06-02T22:20:02.975Z,0
2018-06-02T22:25:03.517Z,0
2018-06-02T22:30:03.040Z,0
2018-06-02T22:35:02.744Z,0
2018-06-02T22:40:03.400Z,0
2018-06-02T22:45:02.966Z,0
2018-06-02T22:50:02.912Z,0
2018-06-02T22:55:03.556Z,0
2018-06-02T23:00:03.145Z,0
2018-06-02T23:05:02.843Z,0
2018-06-02T23:10:03.456Z,0
2018-06-02T23:15:03.047Z,0
2018-06-02T23:20:02.670Z,0
2018-06-02T23:25:03.228Z,0
2018-06-02T23:30:02.853Z,0
2018-06-02T23:35:03.477Z,1
2018-06-02T23:40:03.024Z,0
2018-06-02T23:45:03.768Z,0
2018-06-02T23:50:03.314Z,0
2018-06-02T23:55:02.856Z,0
